sensor_id;sensor_type;location;lat;lon;timestamp;P1;durP1;ratioP1;P2;durP2;ratioP2
63016;SDS011;50274;45.640;11.756;2023-05-10T00:02:07;6.00;;;1.20;;
63016;SDS011;50274;45.640;11.756;2023-05-10T00:04:33;4.55;;;1.40;;
63016;SDS011;50274;45.640;11.756;2023-05-10T00:06:59;4.57;;;1.40;;
63016;SDS011;50274;45.640;11.756;2023-05-10T00:09:24;5.22;;;1.48;;
63016;SDS011;50274;45.640;11.756;2023-05-10T00:11:50;5.22;;;1.50;;
63016;SDS011;50274;45.640;11.756;2023-05-10T00:14:16;6.70;;;1.47;;
63016;SDS011;50274;45.640;11.756;2023-05-10T00:16:42;4.60;;;1.30;;
63016;SDS011;50274;45.640;11.756;2023-05-10T00:19:08;4.57;;;1.40;;
63016;SDS011;50274;45.640;11.756;2023-05-10T00:21:33;4.10;;;1.50;;
63016;SDS011;50274;45.640;11.756;2023-05-10T00:23:59;4.90;;;1.70;;
63016;SDS011;50274;45.640;11.756;2023-05-10T00:26:25;5.50;;;1.73;;
63016;SDS011;50274;45.640;11.756;2023-05-10T00:28:51;3.80;;;1.40;;
63016;SDS011;50274;45.640;11.756;2023-05-10T00:31:17;7.60;;;1.58;;
63016;SDS011;50274;45.640;11.756;2023-05-10T00:33:43;5.23;;;1.60;;
63016;SDS011;50274;45.640;11.756;2023-05-10T00:36:08;5.35;;;1.40;;
63016;SDS011;50274;45.640;11.756;2023-05-10T00:38:34;3.78;;;1.30;;
63016;SDS011;50274;45.640;11.756;2023-05-10T00:41:00;3.97;;;1.40;;
63016;SDS011;50274;45.640;11.756;2023-05-10T00:43:26;4.80;;;1.50;;
63016;SDS011;50274;45.640;11.756;2023-05-10T00:45:52;5.18;;;1.25;;
63016;SDS011;50274;45.640;11.756;2023-05-10T00:48:18;5.80;;;1.43;;
63016;SDS011;50274;45.640;11.756;2023-05-10T00:50:44;4.00;;;1.40;;
63016;SDS011;50274;45.640;11.756;2023-05-10T00:53:10;5.10;;;1.60;;
63016;SDS011;50274;45.640;11.756;2023-05-10T00:55:37;3.80;;;1.30;;
63016;SDS011;50274;45.640;11.756;2023-05-10T00:58:04;4.40;;;1.42;;
63016;SDS011;50274;45.640;11.756;2023-05-10T01:00:29;4.10;;;1.47;;
63016;SDS011;50274;45.640;11.756;2023-05-10T01:02:57;5.07;;;1.60;;
63016;SDS011;50274;45.640;11.756;2023-05-10T01:05:23;4.90;;;1.63;;
63016;SDS011;50274;45.640;11.756;2023-05-10T01:07:49;5.03;;;1.63;;
63016;SDS011;50274;45.640;11.756;2023-05-10T01:10:15;4.20;;;1.63;;
63016;SDS011;50274;45.640;11.756;2023-05-10T01:12:42;3.97;;;1.30;;
63016;SDS011;50274;45.640;11.756;2023-05-10T01:15:10;4.38;;;1.67;;
63016;SDS011;50274;45.640;11.756;2023-05-10T01:17:37;3.90;;;1.40;;
63016;SDS011;50274;45.640;11.756;2023-05-10T01:20:06;5.18;;;1.58;;
63016;SDS011;50274;45.640;11.756;2023-05-10T01:33:47;4.72;;;1.70;;
63016;SDS011;50274;45.640;11.756;2023-05-10T01:36:26;4.35;;;1.58;;
63016;SDS011;50274;45.640;11.756;2023-05-10T01:41:49;4.50;;;1.58;;
63016;SDS011;50274;45.640;11.756;2023-05-10T01:44:40;5.70;;;1.70;;
63016;SDS011;50274;45.640;11.756;2023-05-10T01:47:31;5.65;;;1.23;;
63016;SDS011;50274;45.640;11.756;2023-05-10T01:50:04;4.75;;;1.50;;
63016;SDS011;50274;45.640;11.756;2023-05-10T01:52:45;6.07;;;1.80;;
63016;SDS011;50274;45.640;11.756;2023-05-10T01:55:22;4.65;;;1.63;;
63016;SDS011;50274;45.640;11.756;2023-05-10T01:57:54;4.90;;;1.88;;
63016;SDS011;50274;45.640;11.756;2023-05-10T02:00:31;4.57;;;1.70;;
63016;SDS011;50274;45.640;11.756;2023-05-10T02:02:59;5.00;;;1.92;;
63016;SDS011;50274;45.640;11.756;2023-05-10T02:05:28;5.90;;;2.10;;
63016;SDS011;50274;45.640;11.756;2023-05-10T02:07:57;4.32;;;1.60;;
63016;SDS011;50274;45.640;11.756;2023-05-10T02:10:25;4.28;;;1.75;;
63016;SDS011;50274;45.640;11.756;2023-05-10T02:12:52;5.38;;;1.63;;
63016;SDS011;50274;45.640;11.756;2023-05-10T02:15:22;5.68;;;1.80;;
63016;SDS011;50274;45.640;11.756;2023-05-10T02:17:49;4.17;;;1.60;;
63016;SDS011;50274;45.640;11.756;2023-05-10T02:20:17;4.88;;;2.05;;
63016;SDS011;50274;45.640;11.756;2023-05-10T02:22:45;4.50;;;1.77;;
63016;SDS011;50274;45.640;11.756;2023-05-10T02:25:13;4.63;;;1.75;;
63016;SDS011;50274;45.640;11.756;2023-05-10T02:27:41;4.75;;;1.80;;
63016;SDS011;50274;45.640;11.756;2023-05-10T02:30:08;5.10;;;2.10;;
63016;SDS011;50274;45.640;11.756;2023-05-10T02:32:35;4.65;;;1.95;;
63016;SDS011;50274;45.640;11.756;2023-05-10T02:35:03;5.47;;;1.88;;
63016;SDS011;50274;45.640;11.756;2023-05-10T02:37:30;5.93;;;2.10;;
63016;SDS011;50274;45.640;11.756;2023-05-10T02:39:57;5.40;;;1.75;;
63016;SDS011;50274;45.640;11.756;2023-05-10T02:42:27;5.03;;;1.70;;
63016;SDS011;50274;45.640;11.756;2023-05-10T02:44:59;6.00;;;1.92;;
63016;SDS011;50274;45.640;11.756;2023-05-10T02:47:28;5.20;;;1.90;;
63016;SDS011;50274;45.640;11.756;2023-05-10T02:49:54;7.50;;;2.03;;
63016;SDS011;50274;45.640;11.756;2023-05-10T02:52:24;4.45;;;1.65;;
63016;SDS011;50274;45.640;11.756;2023-05-10T02:54:58;8.30;;;1.60;;
63016;SDS011;50274;45.640;11.756;2023-05-10T02:57:27;5.18;;;1.95;;
63016;SDS011;50274;45.640;11.756;2023-05-10T02:59:56;5.60;;;1.73;;
63016;SDS011;50274;45.640;11.756;2023-05-10T03:02:23;5.43;;;1.90;;
63016;SDS011;50274;45.640;11.756;2023-05-10T03:04:49;5.17;;;1.93;;
63016;SDS011;50274;45.640;11.756;2023-05-10T03:07:15;4.32;;;1.92;;
63016;SDS011;50274;45.640;11.756;2023-05-10T03:09:41;4.57;;;1.83;;
63016;SDS011;50274;45.640;11.756;2023-05-10T03:15:15;5.10;;;1.63;;
63016;SDS011;50274;45.640;11.756;2023-05-10T03:18:06;4.55;;;1.67;;
63016;SDS011;50274;45.640;11.756;2023-05-10T03:20:36;5.28;;;1.80;;
63016;SDS011;50274;45.640;11.756;2023-05-10T03:23:30;4.57;;;1.65;;
63016;SDS011;50274;45.640;11.756;2023-05-10T03:25:59;4.50;;;1.83;;
63016;SDS011;50274;45.640;11.756;2023-05-10T03:28:26;4.23;;;1.73;;
63016;SDS011;50274;45.640;11.756;2023-05-10T03:30:53;4.65;;;1.80;;
63016;SDS011;50274;45.640;11.756;2023-05-10T03:33:20;5.07;;;2.30;;
63016;SDS011;50274;45.640;11.756;2023-05-10T03:35:48;4.65;;;1.75;;
63016;SDS011;50274;45.640;11.756;2023-05-10T03:38:14;4.47;;;1.90;;
63016;SDS011;50274;45.640;11.756;2023-05-10T03:40:40;5.30;;;2.10;;
63016;SDS011;50274;45.640;11.756;2023-05-10T03:43:06;4.22;;;1.80;;
63016;SDS011;50274;45.640;11.756;2023-05-10T03:45:32;4.73;;;1.80;;
63016;SDS011;50274;45.640;11.756;2023-05-10T03:47:58;4.57;;;1.80;;
63016;SDS011;50274;45.640;11.756;2023-05-10T03:50:23;5.10;;;1.75;;
63016;SDS011;50274;45.640;11.756;2023-05-10T03:52:49;3.73;;;1.40;;
63016;SDS011;50274;45.640;11.756;2023-05-10T03:55:15;3.80;;;1.33;;
63016;SDS011;50274;45.640;11.756;2023-05-10T03:57:41;5.03;;;1.50;;
63016;SDS011;50274;45.640;11.756;2023-05-10T04:00:07;4.43;;;1.70;;
63016;SDS011;50274;45.640;11.756;2023-05-10T04:02:35;3.60;;;1.50;;
63016;SDS011;50274;45.640;11.756;2023-05-10T04:05:01;3.63;;;1.27;;
63016;SDS011;50274;45.640;11.756;2023-05-10T04:07:27;4.47;;;1.17;;
63016;SDS011;50274;45.640;11.756;2023-05-10T04:09:54;3.65;;;1.30;;
63016;SDS011;50274;45.640;11.756;2023-05-10T04:12:20;3.87;;;1.43;;
63016;SDS011;50274;45.640;11.756;2023-05-10T04:14:45;4.63;;;1.47;;
63016;SDS011;50274;45.640;11.756;2023-05-10T04:17:11;4.25;;;1.60;;
63016;SDS011;50274;45.640;11.756;2023-05-10T04:19:37;4.97;;;1.70;;
63016;SDS011;50274;45.640;11.756;2023-05-10T04:22:03;4.13;;;1.70;;
63016;SDS011;50274;45.640;11.756;2023-05-10T04:24:30;5.07;;;1.67;;
63016;SDS011;50274;45.640;11.756;2023-05-10T04:26:55;4.10;;;1.27;;
63016;SDS011;50274;45.640;11.756;2023-05-10T04:29:21;4.93;;;1.70;;
63016;SDS011;50274;45.640;11.756;2023-05-10T04:31:47;4.07;;;1.40;;
63016;SDS011;50274;45.640;11.756;2023-05-10T04:34:13;4.17;;;1.57;;
63016;SDS011;50274;45.640;11.756;2023-05-10T04:36:39;4.85;;;1.40;;
63016;SDS011;50274;45.640;11.756;2023-05-10T04:39:05;4.40;;;1.60;;
63016;SDS011;50274;45.640;11.756;2023-05-10T04:41:31;5.23;;;1.70;;
63016;SDS011;50274;45.640;11.756;2023-05-10T04:43:57;3.83;;;1.35;;
63016;SDS011;50274;45.640;11.756;2023-05-10T04:46:22;4.27;;;1.50;;
63016;SDS011;50274;45.640;11.756;2023-05-10T04:48:48;4.55;;;1.38;;
63016;SDS011;50274;45.640;11.756;2023-05-10T04:51:14;4.60;;;1.50;;
63016;SDS011;50274;45.640;11.756;2023-05-10T04:53:40;4.57;;;1.47;;
63016;SDS011;50274;45.640;11.756;2023-05-10T04:56:06;4.37;;;1.67;;
63016;SDS011;50274;45.640;11.756;2023-05-10T04:58:32;4.78;;;1.42;;
63016;SDS011;50274;45.640;11.756;2023-05-10T05:01:04;4.22;;;1.50;;
63016;SDS011;50274;45.640;11.756;2023-05-10T05:03:34;4.25;;;1.70;;
63016;SDS011;50274;45.640;11.756;2023-05-10T05:06:00;4.63;;;1.60;;
63016;SDS011;50274;45.640;11.756;2023-05-10T05:08:26;4.93;;;1.70;;
63016;SDS011;50274;45.640;11.756;2023-05-10T05:10:52;4.88;;;1.35;;
63016;SDS011;50274;45.640;11.756;2023-05-10T05:13:18;5.17;;;1.57;;
63016;SDS011;50274;45.640;11.756;2023-05-10T05:15:46;3.90;;;1.23;;
63016;SDS011;50274;45.640;11.756;2023-05-10T05:18:12;3.95;;;1.45;;
63016;SDS011;50274;45.640;11.756;2023-05-10T05:20:38;4.00;;;1.47;;
63016;SDS011;50274;45.640;11.756;2023-05-10T05:23:04;5.13;;;2.00;;
63016;SDS011;50274;45.640;11.756;2023-05-10T05:25:30;3.83;;;1.50;;
63016;SDS011;50274;45.640;11.756;2023-05-10T05:27:56;4.70;;;1.70;;
63016;SDS011;50274;45.640;11.756;2023-05-10T05:30:22;4.63;;;1.57;;
63016;SDS011;50274;45.640;11.756;2023-05-10T05:32:47;4.50;;;1.70;;
63016;SDS011;50274;45.640;11.756;2023-05-10T05:35:13;3.73;;;1.50;;
63016;SDS011;50274;45.640;11.756;2023-05-10T05:37:42;5.25;;;1.52;;
63016;SDS011;50274;45.640;11.756;2023-05-10T05:40:11;4.30;;;1.70;;
63016;SDS011;50274;45.640;11.756;2023-05-10T05:42:38;5.40;;;1.88;;
63016;SDS011;50274;45.640;11.756;2023-05-10T05:45:04;4.60;;;1.67;;
63016;SDS011;50274;45.640;11.756;2023-05-10T05:47:30;4.10;;;1.60;;
63016;SDS011;50274;45.640;11.756;2023-05-10T05:49:56;5.07;;;1.38;;
63016;SDS011;50274;45.640;11.756;2023-05-10T05:52:22;4.10;;;1.40;;
63016;SDS011;50274;45.640;11.756;2023-05-10T05:54:48;4.53;;;1.80;;
63016;SDS011;50274;45.640;11.756;2023-05-10T05:57:14;4.95;;;1.70;;
63016;SDS011;50274;45.640;11.756;2023-05-10T05:59:44;4.77;;;1.60;;
63016;SDS011;50274;45.640;11.756;2023-05-10T06:02:19;4.15;;;1.45;;
63016;SDS011;50274;45.640;11.756;2023-05-10T06:04:46;4.30;;;1.50;;
63016;SDS011;50274;45.640;11.756;2023-05-10T06:07:15;4.53;;;1.50;;
63016;SDS011;50274;45.640;11.756;2023-05-10T06:09:42;4.40;;;1.33;;
63016;SDS011;50274;45.640;11.756;2023-05-10T06:12:14;4.60;;;1.60;;
63016;SDS011;50274;45.640;11.756;2023-05-10T06:14:55;5.43;;;1.80;;
63016;SDS011;50274;45.640;11.756;2023-05-10T06:17:26;5.22;;;1.73;;
63016;SDS011;50274;45.640;11.756;2023-05-10T06:19:56;4.10;;;1.90;;
63016;SDS011;50274;45.640;11.756;2023-05-10T06:23:00;4.00;;;1.60;;
63016;SDS011;50274;45.640;11.756;2023-05-10T06:25:26;3.75;;;1.58;;
63016;SDS011;50274;45.640;11.756;2023-05-10T06:27:51;4.07;;;1.65;;
63016;SDS011;50274;45.640;11.756;2023-05-10T06:30:22;5.13;;;2.03;;
63016;SDS011;50274;45.640;11.756;2023-05-10T06:32:52;4.95;;;1.92;;
63016;SDS011;50274;45.640;11.756;2023-05-10T06:35:18;3.90;;;1.45;;
63016;SDS011;50274;45.640;11.756;2023-05-10T06:37:44;4.25;;;1.60;;
63016;SDS011;50274;45.640;11.756;2023-05-10T06:40:11;5.40;;;1.90;;
63016;SDS011;50274;45.640;11.756;2023-05-10T06:42:37;4.28;;;1.65;;
63016;SDS011;50274;45.640;11.756;2023-05-10T06:45:03;4.57;;;1.75;;
63016;SDS011;50274;45.640;11.756;2023-05-10T06:47:30;4.35;;;1.73;;
63016;SDS011;50274;45.640;11.756;2023-05-10T06:49:56;5.87;;;1.93;;
63016;SDS011;50274;45.640;11.756;2023-05-10T06:52:22;4.70;;;1.73;;
63016;SDS011;50274;45.640;11.756;2023-05-10T06:54:48;4.00;;;1.65;;
63016;SDS011;50274;45.640;11.756;2023-05-10T06:57:14;4.67;;;1.80;;
63016;SDS011;50274;45.640;11.756;2023-05-10T06:59:40;5.45;;;1.55;;
63016;SDS011;50274;45.640;11.756;2023-05-10T07:02:06;4.82;;;2.13;;
63016;SDS011;50274;45.640;11.756;2023-05-10T07:04:32;5.90;;;1.90;;
63016;SDS011;50274;45.640;11.756;2023-05-10T07:06:58;5.90;;;2.10;;
63016;SDS011;50274;45.640;11.756;2023-05-10T07:09:24;4.22;;;1.90;;
63016;SDS011;50274;45.640;11.756;2023-05-10T07:11:50;4.25;;;2.00;;
63016;SDS011;50274;45.640;11.756;2023-05-10T07:14:16;5.27;;;1.80;;
63016;SDS011;50274;45.640;11.756;2023-05-10T07:16:42;4.82;;;2.13;;
63016;SDS011;50274;45.640;11.756;2023-05-10T07:19:07;6.03;;;1.90;;
63016;SDS011;50274;45.640;11.756;2023-05-10T07:21:34;4.57;;;1.65;;
63016;SDS011;50274;45.640;11.756;2023-05-10T07:24:00;5.38;;;2.00;;
63016;SDS011;50274;45.640;11.756;2023-05-10T07:26:25;4.57;;;1.90;;
63016;SDS011;50274;45.640;11.756;2023-05-10T07:28:51;4.35;;;1.90;;
63016;SDS011;50274;45.640;11.756;2023-05-10T07:31:17;4.38;;;1.83;;
63016;SDS011;50274;45.640;11.756;2023-05-10T07:33:43;4.33;;;1.57;;
63016;SDS011;50274;45.640;11.756;2023-05-10T07:36:09;5.38;;;2.03;;
63016;SDS011;50274;45.640;11.756;2023-05-10T07:38:34;5.10;;;2.10;;
63016;SDS011;50274;45.640;11.756;2023-05-10T07:41:00;5.72;;;2.10;;
63016;SDS011;50274;45.640;11.756;2023-05-10T07:43:29;5.60;;;2.30;;
63016;SDS011;50274;45.640;11.756;2023-05-10T07:45:55;4.53;;;1.80;;
63016;SDS011;50274;45.640;11.756;2023-05-10T07:48:22;6.05;;;2.20;;
63016;SDS011;50274;45.640;11.756;2023-05-10T07:50:48;5.63;;;2.03;;
63016;SDS011;50274;45.640;11.756;2023-05-10T07:53:14;4.65;;;1.73;;
63016;SDS011;50274;45.640;11.756;2023-05-10T07:55:39;6.77;;;2.00;;
63016;SDS011;50274;45.640;11.756;2023-05-10T07:58:05;5.75;;;2.22;;
63016;SDS011;50274;45.640;11.756;2023-05-10T08:00:31;6.57;;;2.50;;
63016;SDS011;50274;45.640;11.756;2023-05-10T08:02:57;4.85;;;2.00;;
63016;SDS011;50274;45.640;11.756;2023-05-10T08:05:23;4.97;;;2.05;;
63016;SDS011;50274;45.640;11.756;2023-05-10T08:07:48;5.00;;;2.33;;
63016;SDS011;50274;45.640;11.756;2023-05-10T08:10:15;5.78;;;2.60;;
63016;SDS011;50274;45.640;11.756;2023-05-10T08:12:41;7.03;;;2.30;;
63016;SDS011;50274;45.640;11.756;2023-05-10T08:15:07;6.00;;;2.60;;
63016;SDS011;50274;45.640;11.756;2023-05-10T08:17:34;4.78;;;2.22;;
63016;SDS011;50274;45.640;11.756;2023-05-10T08:19:59;4.70;;;2.30;;
63016;SDS011;50274;45.640;11.756;2023-05-10T08:22:25;5.90;;;2.10;;
63016;SDS011;50274;45.640;11.756;2023-05-10T08:24:51;4.90;;;1.83;;
63016;SDS011;50274;45.640;11.756;2023-05-10T08:27:17;5.75;;;2.22;;
63016;SDS011;50274;45.640;11.756;2023-05-10T08:29:43;5.33;;;2.20;;
63016;SDS011;50274;45.640;11.756;2023-05-10T08:32:09;4.72;;;2.17;;
63016;SDS011;50274;45.640;11.756;2023-05-10T08:34:35;4.85;;;2.05;;
63016;SDS011;50274;45.640;11.756;2023-05-10T08:37:01;6.00;;;2.17;;
63016;SDS011;50274;45.640;11.756;2023-05-10T08:39:26;5.15;;;1.95;;
63016;SDS011;50274;45.640;11.756;2023-05-10T08:41:53;4.93;;;2.17;;
63016;SDS011;50274;45.640;11.756;2023-05-10T08:44:24;4.40;;;2.00;;
63016;SDS011;50274;45.640;11.756;2023-05-10T08:46:50;5.32;;;2.33;;
63016;SDS011;50274;45.640;11.756;2023-05-10T08:49:19;6.05;;;2.20;;
63016;SDS011;50274;45.640;11.756;2023-05-10T08:51:50;5.65;;;1.92;;
63016;SDS011;50274;45.640;11.756;2023-05-10T08:54:19;4.72;;;2.00;;
63016;SDS011;50274;45.640;11.756;2023-05-10T08:56:46;5.63;;;2.10;;
63016;SDS011;50274;45.640;11.756;2023-05-10T08:59:12;5.80;;;2.30;;
63016;SDS011;50274;45.640;11.756;2023-05-10T09:01:39;5.85;;;2.20;;
63016;SDS011;50274;45.640;11.756;2023-05-10T09:04:07;5.13;;;2.63;;
63016;SDS011;50274;45.640;11.756;2023-05-10T09:06:33;5.33;;;2.17;;
63016;SDS011;50274;45.640;11.756;2023-05-10T09:08:59;5.88;;;2.45;;
63016;SDS011;50274;45.640;11.756;2023-05-10T09:11:25;5.55;;;2.60;;
63016;SDS011;50274;45.640;11.756;2023-05-10T09:13:54;5.28;;;2.50;;
63016;SDS011;50274;45.640;11.756;2023-05-10T09:16:20;7.40;;;2.30;;
63016;SDS011;50274;45.640;11.756;2023-05-10T09:18:47;5.13;;;2.30;;
63016;SDS011;50274;45.640;11.756;2023-05-10T09:21:14;6.07;;;2.40;;
63016;SDS011;50274;45.640;11.756;2023-05-10T09:23:44;5.63;;;2.58;;
63016;SDS011;50274;45.640;11.756;2023-05-10T09:26:11;5.07;;;2.53;;
63016;SDS011;50274;45.640;11.756;2023-05-10T09:28:51;6.72;;;2.30;;
63016;SDS011;50274;45.640;11.756;2023-05-10T09:31:17;6.13;;;2.60;;
63016;SDS011;50274;45.640;11.756;2023-05-10T09:33:43;6.35;;;2.50;;
63016;SDS011;50274;45.640;11.756;2023-05-10T09:36:13;6.07;;;2.38;;
63016;SDS011;50274;45.640;11.756;2023-05-10T09:41:17;5.00;;;2.43;;
63016;SDS011;50274;45.640;11.756;2023-05-10T09:43:49;6.00;;;2.40;;
63016;SDS011;50274;45.640;11.756;2023-05-10T09:46:20;4.60;;;1.95;;
63016;SDS011;50274;45.640;11.756;2023-05-10T09:48:47;4.70;;;2.50;;
63016;SDS011;50274;45.640;11.756;2023-05-10T09:51:20;5.25;;;2.40;;
63016;SDS011;50274;45.640;11.756;2023-05-10T09:53:47;5.47;;;2.70;;
63016;SDS011;50274;45.640;11.756;2023-05-10T09:56:32;5.97;;;2.47;;
63016;SDS011;50274;45.640;11.756;2023-05-10T09:59:03;7.78;;;3.05;;
63016;SDS011;50274;45.640;11.756;2023-05-10T10:01:30;6.45;;;2.85;;
63016;SDS011;50274;45.640;11.756;2023-05-10T10:03:56;6.03;;;2.85;;
63016;SDS011;50274;45.640;11.756;2023-05-10T10:06:23;7.03;;;3.27;;
63016;SDS011;50274;45.640;11.756;2023-05-10T10:08:50;5.45;;;2.95;;
63016;SDS011;50274;45.640;11.756;2023-05-10T10:11:16;6.25;;;3.15;;
63016;SDS011;50274;45.640;11.756;2023-05-10T10:13:42;7.53;;;3.03;;
63016;SDS011;50274;45.640;11.756;2023-05-10T10:16:09;5.20;;;2.80;;
63016;SDS011;50274;45.640;11.756;2023-05-10T10:18:35;6.23;;;2.77;;
63016;SDS011;50274;45.640;11.756;2023-05-10T10:21:07;6.00;;;2.92;;
63016;SDS011;50274;45.640;11.756;2023-05-10T10:23:36;5.43;;;2.30;;
63016;SDS011;50274;45.640;11.756;2023-05-10T10:26:02;6.00;;;3.13;;
63016;SDS011;50274;45.640;11.756;2023-05-10T10:28:40;6.32;;;2.75;;
63016;SDS011;50274;45.640;11.756;2023-05-10T10:31:32;5.50;;;2.90;;
63016;SDS011;50274;45.640;11.756;2023-05-10T10:34:10;7.40;;;3.15;;
63016;SDS011;50274;45.640;11.756;2023-05-10T10:36:45;5.95;;;2.47;;
63016;SDS011;50274;45.640;11.756;2023-05-10T10:39:14;5.38;;;2.83;;
63016;SDS011;50274;45.640;11.756;2023-05-10T10:41:54;5.07;;;2.33;;
63016;SDS011;50274;45.640;11.756;2023-05-10T10:49:27;7.20;;;3.83;;
63016;SDS011;50274;45.640;11.756;2023-05-10T11:10:40;6.73;;;3.00;;
63016;SDS011;50274;45.640;11.756;2023-05-10T11:13:16;5.97;;;3.38;;
63016;SDS011;50274;45.640;11.756;2023-05-10T11:15:56;7.30;;;3.47;;
63016;SDS011;50274;45.640;11.756;2023-05-10T11:18:24;8.40;;;3.35;;
63016;SDS011;50274;45.640;11.756;2023-05-10T11:20:59;6.63;;;3.08;;
63016;SDS011;50274;45.640;11.756;2023-05-10T11:23:47;5.63;;;2.93;;
63016;SDS011;50274;45.640;11.756;2023-05-10T11:26:13;5.97;;;3.25;;
63016;SDS011;50274;45.640;11.756;2023-05-10T11:28:46;7.22;;;3.90;;
63016;SDS011;50274;45.640;11.756;2023-05-10T11:31:17;6.28;;;3.55;;
63016;SDS011;50274;45.640;11.756;2023-05-10T11:33:51;10.73;;;4.40;;
63016;SDS011;50274;45.640;11.756;2023-05-10T11:36:28;6.70;;;3.73;;
63016;SDS011;50274;45.640;11.756;2023-05-10T11:38:57;6.25;;;3.38;;
63016;SDS011;50274;45.640;11.756;2023-05-10T11:41:23;5.60;;;3.03;;
63016;SDS011;50274;45.640;11.756;2023-05-10T11:43:50;7.07;;;3.60;;
63016;SDS011;50274;45.640;11.756;2023-05-10T11:46:21;6.78;;;3.45;;
63016;SDS011;50274;45.640;11.756;2023-05-10T11:48:50;5.50;;;3.13;;
63016;SDS011;50274;45.640;11.756;2023-05-10T11:51:24;6.97;;;3.17;;
63016;SDS011;50274;45.640;11.756;2023-05-10T11:53:53;8.25;;;3.35;;
63016;SDS011;50274;45.640;11.756;2023-05-10T11:56:20;6.72;;;3.90;;
63016;SDS011;50274;45.640;11.756;2023-05-10T11:58:52;8.10;;;3.95;;
63016;SDS011;50274;45.640;11.756;2023-05-10T12:01:20;6.50;;;3.90;;
63016;SDS011;50274;45.640;11.756;2023-05-10T12:03:47;7.30;;;4.00;;
63016;SDS011;50274;45.640;11.756;2023-05-10T12:06:14;7.85;;;3.92;;
63016;SDS011;50274;45.640;11.756;2023-05-10T12:08:44;6.18;;;3.20;;
63016;SDS011;50274;45.640;11.756;2023-05-10T12:11:12;6.10;;;3.38;;
63016;SDS011;50274;45.640;11.756;2023-05-10T12:13:41;7.27;;;3.77;;
63016;SDS011;50274;45.640;11.756;2023-05-10T12:16:17;8.30;;;4.50;;
63016;SDS011;50274;45.640;11.756;2023-05-10T12:18:45;6.43;;;3.53;;
63016;SDS011;50274;45.640;11.756;2023-05-10T12:21:13;7.72;;;3.65;;
63016;SDS011;50274;45.640;11.756;2023-05-10T12:23:40;6.65;;;3.33;;
63016;SDS011;50274;45.640;11.756;2023-05-10T12:26:09;10.00;;;4.10;;
63016;SDS011;50274;45.640;11.756;2023-05-10T12:28:35;10.30;;;4.88;;
63016;SDS011;50274;45.640;11.756;2023-05-10T12:31:02;8.85;;;4.10;;
63016;SDS011;50274;45.640;11.756;2023-05-10T12:33:34;7.07;;;3.83;;
63016;SDS011;50274;45.640;11.756;2023-05-10T12:36:08;7.20;;;4.30;;
63016;SDS011;50274;45.640;11.756;2023-05-10T12:38:45;7.67;;;4.23;;
63016;SDS011;50274;45.640;11.756;2023-05-10T12:41:15;8.68;;;4.60;;
63016;SDS011;50274;45.640;11.756;2023-05-10T12:43:42;8.05;;;4.43;;
63016;SDS011;50274;45.640;11.756;2023-05-10T12:46:13;7.70;;;4.50;;
63016;SDS011;50274;45.640;11.756;2023-05-10T12:48:40;8.52;;;4.43;;
63016;SDS011;50274;45.640;11.756;2023-05-10T12:51:07;7.10;;;4.17;;
63016;SDS011;50274;45.640;11.756;2023-05-10T12:53:42;8.27;;;4.43;;
63016;SDS011;50274;45.640;11.756;2023-05-10T12:56:10;8.80;;;4.70;;
63016;SDS011;50274;45.640;11.756;2023-05-10T12:58:36;7.65;;;4.63;;
63016;SDS011;50274;45.640;11.756;2023-05-10T13:01:04;7.13;;;3.87;;
63016;SDS011;50274;45.640;11.756;2023-05-10T13:03:30;9.25;;;4.90;;
63016;SDS011;50274;45.640;11.756;2023-05-10T13:05:56;8.35;;;5.18;;
63016;SDS011;50274;45.640;11.756;2023-05-10T13:08:22;9.80;;;4.88;;
63016;SDS011;50274;45.640;11.756;2023-05-10T13:10:48;9.67;;;4.80;;
63016;SDS011;50274;45.640;11.756;2023-05-10T13:13:15;9.55;;;5.25;;
63016;SDS011;50274;45.640;11.756;2023-05-10T13:15:41;8.95;;;5.20;;
63016;SDS011;50274;45.640;11.756;2023-05-10T13:18:06;9.60;;;5.47;;
63016;SDS011;50274;45.640;11.756;2023-05-10T13:20:33;8.67;;;5.50;;
63016;SDS011;50274;45.640;11.756;2023-05-10T13:22:58;11.10;;;5.68;;
63016;SDS011;50274;45.640;11.756;2023-05-10T13:25:24;10.60;;;4.97;;
63016;SDS011;50274;45.640;11.756;2023-05-10T13:27:50;8.90;;;4.93;;
63016;SDS011;50274;45.640;11.756;2023-05-10T13:30:16;9.68;;;5.43;;
63016;SDS011;50274;45.640;11.756;2023-05-10T13:32:42;10.00;;;5.30;;
63016;SDS011;50274;45.640;11.756;2023-05-10T13:35:08;8.60;;;5.07;;
63016;SDS011;50274;45.640;11.756;2023-05-10T13:37:34;8.95;;;5.40;;
63016;SDS011;50274;45.640;11.756;2023-05-10T13:40:02;8.88;;;5.75;;
63016;SDS011;50274;45.640;11.756;2023-05-10T13:42:29;9.50;;;5.20;;
63016;SDS011;50274;45.640;11.756;2023-05-10T13:44:56;9.05;;;5.60;;
63016;SDS011;50274;45.640;11.756;2023-05-10T13:47:22;10.55;;;6.05;;
63016;SDS011;50274;45.640;11.756;2023-05-10T13:49:48;9.67;;;5.37;;
63016;SDS011;50274;45.640;11.756;2023-05-10T13:52:19;8.75;;;5.53;;
63016;SDS011;50274;45.640;11.756;2023-05-10T13:54:45;10.10;;;5.57;;
63016;SDS011;50274;45.640;11.756;2023-05-10T13:57:11;9.90;;;6.10;;
63016;SDS011;50274;45.640;11.756;2023-05-10T13:59:39;8.93;;;5.57;;
63016;SDS011;50274;45.640;11.756;2023-05-10T14:02:05;8.00;;;5.05;;
63016;SDS011;50274;45.640;11.756;2023-05-10T14:04:31;7.90;;;4.70;;
63016;SDS011;50274;45.640;11.756;2023-05-10T14:06:57;9.20;;;5.20;;
63016;SDS011;50274;45.640;11.756;2023-05-10T14:09:23;9.47;;;5.00;;
63016;SDS011;50274;45.640;11.756;2023-05-10T14:11:49;7.43;;;4.32;;
63016;SDS011;50274;45.640;11.756;2023-05-10T14:14:14;7.32;;;4.38;;
63016;SDS011;50274;45.640;11.756;2023-05-10T14:16:42;8.60;;;4.47;;
63016;SDS011;50274;45.640;11.756;2023-05-10T14:19:10;8.65;;;5.30;;
63016;SDS011;50274;45.640;11.756;2023-05-10T14:21:38;8.90;;;5.15;;
63016;SDS011;50274;45.640;11.756;2023-05-10T14:24:05;8.35;;;5.03;;
63016;SDS011;50274;45.640;11.756;2023-05-10T14:26:32;7.53;;;4.97;;
63016;SDS011;50274;45.640;11.756;2023-05-10T14:28:59;11.93;;;5.43;;
63016;SDS011;50274;45.640;11.756;2023-05-10T14:31:25;8.63;;;5.57;;
63016;SDS011;50274;45.640;11.756;2023-05-10T14:33:52;8.80;;;5.70;;
63016;SDS011;50274;45.640;11.756;2023-05-10T14:36:18;7.78;;;5.28;;
63016;SDS011;50274;45.640;11.756;2023-05-10T14:38:44;9.57;;;5.67;;
63016;SDS011;50274;45.640;11.756;2023-05-10T14:41:10;9.50;;;5.57;;
63016;SDS011;50274;45.640;11.756;2023-05-10T14:43:39;7.78;;;5.25;;
63016;SDS011;50274;45.640;11.756;2023-05-10T14:46:07;9.07;;;5.63;;
63016;SDS011;50274;45.640;11.756;2023-05-10T14:48:35;9.20;;;5.05;;
63016;SDS011;50274;45.640;11.756;2023-05-10T14:51:08;8.32;;;5.72;;
63016;SDS011;50274;45.640;11.756;2023-05-10T14:53:48;9.18;;;5.72;;
63016;SDS011;50274;45.640;11.756;2023-05-10T14:56:14;8.30;;;5.38;;
63016;SDS011;50274;45.640;11.756;2023-05-10T14:58:40;9.07;;;5.27;;
63016;SDS011;50274;45.640;11.756;2023-05-10T15:01:06;10.82;;;5.45;;
63016;SDS011;50274;45.640;11.756;2023-05-10T15:03:32;10.00;;;5.40;;
63016;SDS011;50274;45.640;11.756;2023-05-10T15:05:58;9.68;;;5.97;;
63016;SDS011;50274;45.640;11.756;2023-05-10T15:08:24;11.45;;;6.32;;
63016;SDS011;50274;45.640;11.756;2023-05-10T15:10:51;10.03;;;6.00;;
63016;SDS011;50274;45.640;11.756;2023-05-10T15:13:17;9.18;;;6.07;;
63016;SDS011;50274;45.640;11.756;2023-05-10T15:15:43;9.57;;;6.30;;
63016;SDS011;50274;45.640;11.756;2023-05-10T15:18:09;10.47;;;6.40;;
63016;SDS011;50274;45.640;11.756;2023-05-10T15:20:35;9.60;;;6.20;;
63016;SDS011;50274;45.640;11.756;2023-05-10T15:23:01;10.48;;;6.40;;